createdAt,value
2019-02-02T00:01:31.823Z,51.03
2019-02-02T00:04:02.451Z,49.87
2019-02-02T00:06:34.110Z,52.83
2019-02-02T00:09:08.114Z,52.87
2019-02-02T00:11:38.938Z,51.90
2019-02-02T00:14:09.845Z,54.60
2019-02-02T00:16:40.621Z,55.07
2019-02-02T00:19:11.319Z,52.83
2019-02-02T00:21:43.056Z,54.63
2019-02-02T00:24:13.704Z,57.20
2019-02-02T00:26:44.396Z,55.70
2019-02-02T00:29:15.084Z,58.60
2019-02-02T00:31:45.810Z,56.07
2019-02-02T00:34:16.471Z,57.03
2019-02-02T00:36:47.136Z,55.70
2019-02-02T00:39:17.784Z,57.37
2019-02-02T00:41:48.548Z,57.20
2019-02-02T00:44:19.360Z,54.37
2019-02-02T00:46:50.327Z,55.90
2019-02-02T00:49:21.624Z,58.63
2019-02-02T00:51:52.369Z,57.30
2019-02-02T00:54:23.360Z,58.57
2019-02-02T00:56:54.062Z,59.60
2019-02-02T00:59:25.443Z,60.00
2019-02-02T01:01:56.405Z,59.20
2019-02-02T01:04:27.244Z,61.50
2019-02-02T01:06:57.906Z,60.37
2019-02-02T01:09:28.691Z,59.00
2019-02-02T01:11:59.413Z,60.80
2019-02-02T01:14:30.126Z,61.70
2019-02-02T01:17:00.811Z,59.73
2019-02-02T01:19:32.369Z,61.87
2019-02-02T01:22:03.065Z,64.07
2019-02-02T01:24:33.680Z,63.20
2019-02-02T01:27:04.358Z,63.03
2019-02-02T01:29:35.044Z,62.40
2019-02-02T01:32:05.906Z,62.87
2019-02-02T01:34:36.578Z,64.30
2019-02-02T01:37:07.255Z,63.67
2019-02-02T01:39:38.169Z,63.50
2019-02-02T01:42:08.810Z,62.33
2019-02-02T01:44:39.500Z,64.57
2019-02-02T01:47:10.126Z,64.67
2019-02-02T01:49:40.912Z,63.50
2019-02-02T01:52:11.552Z,64.23
2019-02-02T01:54:43.824Z,62.43
2019-02-02T01:57:14.445Z,62.23
2019-02-02T01:59:45.163Z,63.40
2019-02-02T02:02:15.813Z,63.47
2019-02-02T02:04:46.475Z,64.70
2019-02-02T02:07:17.111Z,65.13
2019-02-02T02:09:47.909Z,62.97
2019-02-02T02:12:18.538Z,62.83
2019-02-02T02:14:49.244Z,63.93
2019-02-02T02:17:20.041Z,63.80
2019-02-02T02:19:51.261Z,65.17
2019-02-02T02:22:21.934Z,62.47
2019-02-02T02:24:52.701Z,62.60
2019-02-02T02:27:23.515Z,64.57
2019-02-02T02:29:54.295Z,62.80
2019-02-02T02:32:25.768Z,65.60
2019-02-02T02:34:56.602Z,63.83
2019-02-02T02:37:27.726Z,63.60
2019-02-02T02:39:58.434Z,65.83
2019-02-02T02:42:29.400Z,63.87
2019-02-02T02:45:00.283Z,66.90
2019-02-02T02:47:31.094Z,64.63
2019-02-02T02:50:01.755Z,66.67
2019-02-02T02:52:32.699Z,64.47
2019-02-02T02:55:03.341Z,60.77
2019-02-02T02:57:34.262Z,65.03
2019-02-02T03:00:06.613Z,65.50
2019-02-02T03:02:38.001Z,62.73
2019-02-02T03:05:11.146Z,64.93
2019-02-02T03:07:41.893Z,63.63
2019-02-02T03:10:15.530Z,66.33
2019-02-02T03:12:46.228Z,66.13
2019-02-02T03:15:17.870Z,63.10
2019-02-02T03:17:49.107Z,63.27
2019-02-02T03:20:20.025Z,65.87
2019-02-02T03:22:51.086Z,67.00
2019-02-02T03:25:26.031Z,65.17
2019-02-02T03:27:56.813Z,65.67
2019-02-02T03:30:27.747Z,68.53
2019-02-02T03:32:58.617Z,67.23
2019-02-02T03:35:29.357Z,68.70
2019-02-02T03:38:00.077Z,68.37
2019-02-02T03:40:31.189Z,67.57
2019-02-02T03:43:01.863Z,65.40
2019-02-02T03:45:32.638Z,66.00
2019-02-02T03:48:03.404Z,64.43
2019-02-02T03:50:34.046Z,69.87
2019-02-02T03:53:04.818Z,65.93
2019-02-02T03:55:35.482Z,67.83
2019-02-02T03:58:08.002Z,67.70
2019-02-02T04:00:39.948Z,68.77
2019-02-02T04:03:10.661Z,66.83
2019-02-02T04:05:41.995Z,69.33
2019-02-02T04:08:12.696Z,69.13
2019-02-02T04:10:43.463Z,66.53
2019-02-02T04:13:14.127Z,66.43
2019-02-02T04:15:45.616Z,68.43
2019-02-02T04:18:16.408Z,69.57
2019-02-02T04:20:47.084Z,71.13
2019-02-02T04:23:17.762Z,66.07
2019-02-02T04:25:48.418Z,68.40
2019-02-02T04:28:19.097Z,67.33
2019-02-02T04:30:49.819Z,66.37
2019-02-02T04:33:20.450Z,69.63
2019-02-02T04:35:51.124Z,63.93
2019-02-02T04:38:21.832Z,65.57
2019-02-02T04:40:52.809Z,67.57
2019-02-02T04:43:26.001Z,66.10
2019-02-02T04:45:55.872Z,67.43
2019-02-02T04:48:26.531Z,65.40
2019-02-02T04:50:57.237Z,67.20
2019-02-02T04:53:27.960Z,69.70
2019-02-02T04:55:58.829Z,68.03
2019-02-02T04:58:29.839Z,68.60
2019-02-02T05:01:00.496Z,67.07
2019-02-02T05:03:31.172Z,67.07
2019-02-02T05:06:01.976Z,64.80
2019-02-02T05:08:32.694Z,64.80
2019-02-02T05:11:03.415Z,66.77
2019-02-02T05:13:34.167Z,64.43
2019-02-02T05:16:04.938Z,67.07
2019-02-02T05:18:35.617Z,65.63
2019-02-02T05:21:06.582Z,66.97
2019-02-02T05:23:37.320Z,68.37
2019-02-02T05:26:07.982Z,63.67
2019-02-02T05:28:38.708Z,66.53
2019-02-02T05:31:09.348Z,65.60
2019-02-02T05:33:40.768Z,65.20
2019-02-02T05:36:11.500Z,65.17
2019-02-02T05:38:43.051Z,62.43
2019-02-02T05:41:13.807Z,63.13
2019-02-02T05:43:45.235Z,63.73
2019-02-02T05:46:15.976Z,64.90
2019-02-02T05:48:47.203Z,68.53
2019-02-02T05:51:17.900Z,66.27
2019-02-02T05:53:48.715Z,68.27
2019-02-02T05:56:19.371Z,65.97
2019-02-02T05:58:50.035Z,65.20
2019-02-02T06:01:22.422Z,65.27
2019-02-02T06:03:53.238Z,64.53
2019-02-02T06:06:23.918Z,65.90
2019-02-02T06:08:54.535Z,66.27
2019-02-02T06:11:25.552Z,65.93
2019-02-02T06:13:56.480Z,61.57
2019-02-02T06:16:27.201Z,63.00
2019-02-02T06:18:57.824Z,64.00
2019-02-02T06:21:29.250Z,62.83
2019-02-02T06:23:59.903Z,64.63
2019-02-02T06:26:30.573Z,62.00
2019-02-02T06:29:01.361Z,63.50
2019-02-02T06:31:32.366Z,63.43
2019-02-02T06:34:03.137Z,62.00
2019-02-02T06:36:33.825Z,62.10
2019-02-02T06:39:06.990Z,61.07
2019-02-02T06:41:37.656Z,62.77
2019-02-02T06:44:08.321Z,60.70
2019-02-02T06:46:43.577Z,61.57
2019-02-02T06:49:11.437Z,60.63
2019-02-02T06:51:43.435Z,62.30
2019-02-02T06:54:14.275Z,60.47
2019-02-02T06:56:45.244Z,60.60
2019-02-02T06:59:15.933Z,60.87
2019-02-02T07:01:46.602Z,61.93
2019-02-02T07:04:17.345Z,61.23
2019-02-02T07:06:48.080Z,62.73
2019-02-02T07:09:18.768Z,63.83
2019-02-02T07:11:49.435Z,63.30
2019-02-02T07:14:20.339Z,61.20
2019-02-02T07:16:51.089Z,60.40
2019-02-02T07:19:21.861Z,60.17
2019-02-02T07:21:52.564Z,64.47
2019-02-02T07:24:23.244Z,61.57
2019-02-02T07:26:54.157Z,62.47
2019-02-02T07:29:25.007Z,62.23
2019-02-02T07:31:55.966Z,62.00
2019-02-02T07:34:26.674Z,60.80
2019-02-02T07:36:57.416Z,60.53
2019-02-02T07:39:28.183Z,61.30
2019-02-02T07:41:58.929Z,60.10
2019-02-02T07:44:29.578Z,58.87
2019-02-02T07:47:00.565Z,64.03
2019-02-02T07:49:31.773Z,63.20
2019-02-02T07:52:05.441Z,67.20
2019-02-02T07:54:36.073Z,62.77
2019-02-02T07:57:06.739Z,59.13
2019-02-02T07:59:37.396Z,60.60
2019-02-02T08:02:08.387Z,62.13
2019-02-02T08:04:39.303Z,59.10
2019-02-02T08:07:10.053Z,58.60
2019-02-02T08:09:41.569Z,58.70
2019-02-02T08:12:12.364Z,58.17
2019-02-02T08:14:43.079Z,60.20
2019-02-02T08:17:13.800Z,60.53
2019-02-02T08:19:44.678Z,58.47
2019-02-02T08:22:15.331Z,59.20
2019-02-02T08:24:46.262Z,60.27
2019-02-02T08:27:16.961Z,59.97
2019-02-02T08:29:48.177Z,59.70
2019-02-02T08:32:18.807Z,61.13
2019-02-02T08:34:49.845Z,59.03
2019-02-02T08:37:20.541Z,60.17
2019-02-02T08:39:51.305Z,60.10
2019-02-02T08:42:22.062Z,59.70
2019-02-02T08:44:52.767Z,57.53
2019-02-02T08:47:23.524Z,57.17
2019-02-02T08:49:54.495Z,56.70
2019-02-02T08:52:25.102Z,56.20
2019-02-02T08:54:55.874Z,57.17
2019-02-02T08:57:26.607Z,55.70
2019-02-02T08:59:59.926Z,57.70
2019-02-02T09:02:30.975Z,54.77
2019-02-02T09:05:01.712Z,56.00
2019-02-02T09:07:33.120Z,53.93
2019-02-02T09:10:03.996Z,56.63
2019-02-02T09:12:35.525Z,56.20
2019-02-02T09:15:07.593Z,54.63
2019-02-02T09:17:41.183Z,61.80
2019-02-02T09:20:12.356Z,56.27
2019-02-02T09:22:43.752Z,54.27
2019-02-02T09:25:17.701Z,55.70
2019-02-02T09:27:49.018Z,56.03
2019-02-02T09:30:30.542Z,54.03
2019-02-02T09:33:01.307Z,53.97
2019-02-02T09:35:32.160Z,57.63
2019-02-02T09:38:02.904Z,55.27
2019-02-02T09:40:34.107Z,55.93
2019-02-02T09:43:05.141Z,56.63
2019-02-02T09:45:35.833Z,54.03
2019-02-02T09:48:06.732Z,55.47
2019-02-02T09:50:37.541Z,54.87
2019-02-02T09:53:09.338Z,55.17
2019-02-02T09:55:40.014Z,56.77
2019-02-02T09:58:12.723Z,56.03
2019-02-02T10:00:44.045Z,54.57
2019-02-02T10:03:14.695Z,54.83
2019-02-02T10:05:45.428Z,55.70
2019-02-02T10:08:16.888Z,54.00
2019-02-02T10:10:47.543Z,54.27
2019-02-02T10:13:18.294Z,54.63
2019-02-02T10:15:49.069Z,60.17
2019-02-02T10:18:19.718Z,57.43
2019-02-02T10:20:50.922Z,56.80
2019-02-02T10:23:21.568Z,58.00
2019-02-02T10:25:52.520Z,56.83
2019-02-02T10:28:23.219Z,54.47
2019-02-02T10:30:54.576Z,53.17
2019-02-02T10:33:25.285Z,55.43
2019-02-02T10:35:56.975Z,53.73
2019-02-02T10:38:27.689Z,55.13
2019-02-02T10:41:00.423Z,54.53
2019-02-02T10:43:31.616Z,58.80
2019-02-02T10:46:02.276Z,56.60
2019-02-02T10:48:32.933Z,55.37
2019-02-02T10:51:03.587Z,52.87
2019-02-02T10:53:34.383Z,53.43
2019-02-02T10:56:05.203Z,56.87
2019-02-02T10:58:36.024Z,55.93
2019-02-02T11:01:06.996Z,53.80
2019-02-02T11:03:38.036Z,54.80
2019-02-02T11:06:09.200Z,52.23
2019-02-02T11:08:40.513Z,54.47
2019-02-02T11:11:11.665Z,56.00
2019-02-02T11:13:42.965Z,55.67
2019-02-02T11:16:14.718Z,55.20
2019-02-02T11:18:45.555Z,53.17
2019-02-02T11:21:16.419Z,54.23
2019-02-02T11:23:47.144Z,54.43
2019-02-02T11:26:19.637Z,55.70
2019-02-02T11:28:50.695Z,57.63
2019-02-02T11:31:21.425Z,56.67
2019-02-02T11:33:52.034Z,54.43
2019-02-02T11:36:22.719Z,54.80
2019-02-02T11:38:53.361Z,57.30
2019-02-02T11:41:24.090Z,54.47
2019-02-02T11:43:55.413Z,53.43
2019-02-02T11:46:26.142Z,57.23
2019-02-02T11:48:57.459Z,58.03
2019-02-02T11:51:28.084Z,55.13
2019-02-02T11:53:59.587Z,57.17
2019-02-02T11:56:30.244Z,56.60
2019-02-02T11:59:00.954Z,55.27
2019-02-02T12:01:32.340Z,57.53
2019-02-02T12:04:03.535Z,57.27
2019-02-02T12:06:34.239Z,58.80
2019-02-02T12:09:07.510Z,56.17
2019-02-02T12:11:38.213Z,56.47
2019-02-02T12:14:09.444Z,58.93
2019-02-02T12:16:40.104Z,58.10
2019-02-02T12:19:10.749Z,59.27
2019-02-02T12:21:42.792Z,59.30
2019-02-02T12:24:16.212Z,60.33
2019-02-02T12:26:45.834Z,61.40
2019-02-02T12:29:16.500Z,68.60
2019-02-02T12:31:47.157Z,71.37
2019-02-02T12:34:17.802Z,71.77
2019-02-02T12:36:48.714Z,83.07
2019-02-02T12:39:19.524Z,83.77
2019-02-02T12:41:50.237Z,79.70
2019-02-02T12:44:20.984Z,84.47
2019-02-02T12:46:51.874Z,68.73
2019-02-02T12:49:22.841Z,62.67
2019-02-02T12:51:53.519Z,64.17
2019-02-02T12:54:24.245Z,61.83
2019-02-02T12:56:54.997Z,61.70
2019-02-02T12:59:25.711Z,61.73
2019-02-02T13:01:56.723Z,63.63
2019-02-02T13:04:27.501Z,62.27
2019-02-02T13:06:58.136Z,62.00
2019-02-02T13:09:28.833Z,64.23
2019-02-02T13:11:59.653Z,64.33
2019-02-02T13:14:32.936Z,64.67
2019-02-02T13:17:04.052Z,61.87
2019-02-02T13:19:35.012Z,62.67
2019-02-02T13:22:05.922Z,62.87
2019-02-02T13:24:36.754Z,63.43
2019-02-02T13:27:07.487Z,66.73
2019-02-02T13:29:38.171Z,64.60
2019-02-02T13:32:10.048Z,65.50
2019-02-02T13:34:40.763Z,69.37
2019-02-02T13:37:11.516Z,67.93
2019-02-02T13:39:43.536Z,69.07
2019-02-02T13:42:14.234Z,65.43
2019-02-02T13:44:45.064Z,68.20
2019-02-02T13:47:15.821Z,64.73
2019-02-02T13:49:47.465Z,65.00
2019-02-02T13:52:18.163Z,63.33
2019-02-02T13:54:51.064Z,63.70
2019-02-02T13:57:22.246Z,66.73
2019-02-02T13:59:54.721Z,64.83
2019-02-02T14:02:25.649Z,63.13
2019-02-02T14:04:56.626Z,60.27
2019-02-02T14:07:27.562Z,61.93
2019-02-02T14:09:58.298Z,63.57
2019-02-02T14:12:28.977Z,61.63
2019-02-02T14:14:59.652Z,63.50
2019-02-02T14:17:30.392Z,59.90
2019-02-02T14:20:01.172Z,61.20
2019-02-02T14:22:32.481Z,58.60
2019-02-02T14:25:04.042Z,58.73
2019-02-02T14:27:34.771Z,59.13
2019-02-02T14:30:14.278Z,58.13
2019-02-02T14:32:45.070Z,57.33
2019-02-02T14:35:17.301Z,57.83
2019-02-02T14:37:48.101Z,55.50
2019-02-02T14:40:19.882Z,57.17
2019-02-02T14:42:57.214Z,54.63
2019-02-02T14:45:28.931Z,55.33
2019-02-02T14:47:59.664Z,55.47
2019-02-02T14:50:32.136Z,52.33
2019-02-02T14:53:02.867Z,52.87
2019-02-02T14:55:34.910Z,50.47
2019-02-02T14:58:07.078Z,53.47
2019-02-02T15:00:39.071Z,51.23
2019-02-02T15:03:10.428Z,49.70
2019-02-02T15:05:42.967Z,51.60
2019-02-02T15:08:13.654Z,47.13
2019-02-02T15:10:44.425Z,46.67
2019-02-02T15:13:15.177Z,47.23
2019-02-02T15:15:45.972Z,43.33
2019-02-02T15:18:16.662Z,45.13
2019-02-02T15:20:47.280Z,44.37
2019-02-02T15:23:19.810Z,42.37
2019-02-02T15:25:50.662Z,41.77
2019-02-02T15:28:21.447Z,43.40
2019-02-02T15:30:52.404Z,43.57
2019-02-02T15:33:23.001Z,44.07
2019-02-02T15:35:53.934Z,44.03
2019-02-02T15:38:24.598Z,45.57
2019-02-02T15:40:59.116Z,47.97
2019-02-02T15:43:32.252Z,46.40
2019-02-02T15:46:04.928Z,46.03
2019-02-02T15:48:47.133Z,46.83
2019-02-02T15:51:19.988Z,46.03
2019-02-02T15:54:15.043Z,47.43
2019-02-02T15:56:48.152Z,45.63
2019-02-02T15:59:18.852Z,48.73
2019-02-02T16:01:49.943Z,45.20
2019-02-02T16:04:21.605Z,48.57
2019-02-02T16:06:52.303Z,47.50
2019-02-02T16:09:22.983Z,48.07
2019-02-02T16:11:53.648Z,46.67
2019-02-02T16:14:24.351Z,45.83
2019-02-02T16:16:55.086Z,48.93
2019-02-02T16:19:25.877Z,46.63
2019-02-02T16:21:56.750Z,46.83
2019-02-02T16:24:27.578Z,47.60
2019-02-02T16:26:58.236Z,49.80
2019-02-02T16:29:29.070Z,49.27
2019-02-02T16:32:00.396Z,46.13
2019-02-02T16:34:31.538Z,48.50
2019-02-02T16:37:02.756Z,46.20
2019-02-02T16:39:33.528Z,46.70
2019-02-02T16:42:04.297Z,46.97
2019-02-02T16:44:35.920Z,45.97
2019-02-02T16:47:06.829Z,43.90
2019-02-02T16:49:37.517Z,44.13
2019-02-02T16:52:08.214Z,43.33
2019-02-02T16:54:39.253Z,46.40
2019-02-02T16:57:10.005Z,43.50
2019-02-02T16:59:41.853Z,42.13
2019-02-02T17:02:12.540Z,45.30
2019-02-02T17:04:43.393Z,43.50
2019-02-02T17:07:14.073Z,42.53
2019-02-02T17:09:44.965Z,43.00
2019-02-02T17:12:34.781Z,44.07
2019-02-02T17:15:05.936Z,43.57
2019-02-02T17:17:36.647Z,42.13
2019-02-02T17:20:10.152Z,45.27
2019-02-02T17:22:40.298Z,43.47
2019-02-02T17:25:12.612Z,44.67
2019-02-02T17:27:43.666Z,45.87
2019-02-02T17:30:16.068Z,44.57
2019-02-02T17:32:46.513Z,45.63
2019-02-02T17:35:16.641Z,47.17
2019-02-02T17:37:46.657Z,43.87
2019-02-02T17:40:20.441Z,46.70
2019-02-02T17:42:50.490Z,46.23
2019-02-02T17:45:21.214Z,46.93
2019-02-02T17:47:51.336Z,47.03
2019-02-02T17:50:23.326Z,48.83
2019-02-02T17:52:53.469Z,47.40
2019-02-02T17:55:23.882Z,45.70
2019-02-02T17:57:53.958Z,43.43
2019-02-02T18:00:55.006Z,43.57
2019-02-02T18:03:26.107Z,46.07
2019-02-02T18:05:56.295Z,44.37
2019-02-02T18:08:26.464Z,44.23
2019-02-02T18:10:56.984Z,45.60
2019-02-02T18:13:27.089Z,43.87
2019-02-02T18:15:57.163Z,42.97
2019-02-02T18:18:27.234Z,43.93
2019-02-02T18:20:57.390Z,45.17
2019-02-02T18:23:27.454Z,46.70
2019-02-02T18:26:07.985Z,47.70
2019-02-02T18:28:46.607Z,44.77
2019-02-02T18:31:26.903Z,45.33
2019-02-02T18:34:06.699Z,45.77
2019-02-02T18:36:44.603Z,44.67
2019-02-02T18:39:14.780Z,45.07
2019-02-02T18:41:46.377Z,45.30
2019-02-02T18:44:18.933Z,45.00
2019-02-02T18:46:52.678Z,45.70
2019-02-02T18:49:22.998Z,46.20
2019-02-02T18:51:54.205Z,47.43
2019-02-02T18:54:24.613Z,48.87
2019-02-02T18:56:54.702Z,48.50
2019-02-02T18:59:25.462Z,46.23
2019-02-02T19:01:55.963Z,49.10
2019-02-02T19:04:26.499Z,48.63
2019-02-02T19:06:56.547Z,47.37
2019-02-02T19:09:26.901Z,47.50
2019-02-02T19:11:56.960Z,49.53
2019-02-02T19:14:28.147Z,50.40
2019-02-02T19:17:01.277Z,50.47
2019-02-02T19:19:30.239Z,50.63
2019-02-02T19:22:00.324Z,51.17
2019-02-02T19:24:30.416Z,51.27
2019-02-02T19:27:00.554Z,49.73
2019-02-02T19:29:30.625Z,50.07
2019-02-02T19:32:01.501Z,53.40
2019-02-02T19:34:32.080Z,51.53
2019-02-02T19:37:02.161Z,49.37
2019-02-02T19:39:32.360Z,50.07
2019-02-02T19:42:02.504Z,50.07
2019-02-02T19:44:32.600Z,51.57
2019-02-02T19:47:02.935Z,51.87
2019-02-02T19:49:33.397Z,50.60
2019-02-02T19:52:03.460Z,50.10
2019-02-02T19:54:33.558Z,51.77
2019-02-02T19:57:03.629Z,49.57
2019-02-02T19:59:33.710Z,51.80
2019-02-02T20:02:04.202Z,50.83
2019-02-02T20:04:34.393Z,54.30
2019-02-02T20:07:04.641Z,50.90
2019-02-02T20:09:34.756Z,55.43
2019-02-02T20:12:08.876Z,60.63
2019-02-02T20:14:37.709Z,56.00
2019-02-02T20:17:07.863Z,51.67
2019-02-02T20:19:37.991Z,55.37
2019-02-02T20:22:08.187Z,46.23
2019-02-02T20:24:38.655Z,48.03
2019-02-02T20:27:08.699Z,51.30
2019-02-02T20:29:39.615Z,47.53
2019-02-02T20:32:09.706Z,45.10
2019-02-02T20:34:39.824Z,47.50
2019-02-02T20:37:10.007Z,48.30
2019-02-02T20:39:41.634Z,48.77
2019-02-02T20:42:11.810Z,46.47
2019-02-02T20:44:41.850Z,46.80
2019-02-02T20:47:13.122Z,47.57
2019-02-02T20:49:43.406Z,45.97
2019-02-02T20:52:15.047Z,47.37
2019-02-02T20:54:48.276Z,52.33
2019-02-02T20:57:18.661Z,45.67
2019-02-02T20:59:48.971Z,48.03
2019-02-02T21:02:19.201Z,47.33
2019-02-02T21:04:49.394Z,46.47
2019-02-02T21:07:19.638Z,47.63
2019-02-02T21:09:50.399Z,48.70
2019-02-02T21:12:20.812Z,50.07
2019-02-02T21:14:50.911Z,47.90
2019-02-02T21:17:21.018Z,47.77
2019-02-02T21:19:51.135Z,44.33
2019-02-02T21:22:21.332Z,43.07
2019-02-02T21:24:51.438Z,44.43
2019-02-02T21:27:21.587Z,42.10
2019-02-02T21:29:55.805Z,37.90
2019-02-02T21:32:25.997Z,40.10
2019-02-02T21:34:56.635Z,37.70
2019-02-02T21:37:27.018Z,37.97
2019-02-02T21:39:57.505Z,39.10
2019-02-02T21:42:27.593Z,39.27
2019-02-02T21:44:57.677Z,38.70
2019-02-02T21:47:27.752Z,38.53
2019-02-02T21:49:58.221Z,39.00
2019-02-02T21:52:28.720Z,38.83
2019-02-02T21:55:01.357Z,39.57
2019-02-02T21:57:31.498Z,38.53
2019-02-02T22:00:01.567Z,37.67
2019-02-02T22:02:32.938Z,41.53
2019-02-02T22:05:03.230Z,37.97
2019-02-02T22:07:33.919Z,37.30
2019-02-02T22:10:04.504Z,37.80
2019-02-02T22:12:35.340Z,35.13
2019-02-02T22:15:07.342Z,36.60
2019-02-02T22:17:37.479Z,37.30
2019-02-02T22:20:08.765Z,36.63
2019-02-02T22:22:39.336Z,37.07
2019-02-02T22:25:15.185Z,35.60
2019-02-02T22:27:45.692Z,32.10
2019-02-02T22:30:19.239Z,34.00
2019-02-02T22:32:50.256Z,33.73
2019-02-02T22:35:20.339Z,34.67
2019-02-02T22:37:51.339Z,33.67
2019-02-02T22:40:23.035Z,32.33
2019-02-02T22:42:54.753Z,33.87
2019-02-02T22:45:24.969Z,32.53
2019-02-02T22:47:55.741Z,34.13
2019-02-02T22:50:26.865Z,36.03
2019-02-02T22:52:57.281Z,32.87
2019-02-02T22:55:27.365Z,33.77
2019-02-02T22:57:57.485Z,34.53
2019-02-02T23:01:08.735Z,31.73
2019-02-02T23:04:06.055Z,32.73
2019-02-02T23:07:14.035Z,32.27
2019-02-02T23:10:23.284Z,32.97
2019-02-02T23:13:16.628Z,32.93
2019-02-02T23:16:27.884Z,33.57
2019-02-02T23:18:58.849Z,35.50
2019-02-02T23:21:30.016Z,36.40
2019-02-02T23:24:00.040Z,35.53
2019-02-02T23:26:30.143Z,32.63
2019-02-02T23:29:00.427Z,33.40
2019-02-02T23:31:30.931Z,33.80
2019-02-02T23:34:01.001Z,33.23
2019-02-02T23:36:31.050Z,33.23
2019-02-02T23:39:01.119Z,33.77
2019-02-02T23:41:31.457Z,34.53
2019-02-02T23:44:01.741Z,35.70
2019-02-02T23:46:31.902Z,37.87
2019-02-02T23:49:01.964Z,36.60
2019-02-02T23:51:32.481Z,38.10
2019-02-02T23:54:02.594Z,37.43
2019-02-02T23:56:32.655Z,39.70
2019-02-02T23:59:03.221Z,38.93
